MSC Sinfonia — H8XH — position and weather

sailwx.info

Track history (hours):
 
Tides and Currents Weather Stations Pressure Air Temp Water Temp Dewpoint Dewpoint Depression Visibility Wind Speed Wind Dir Waves Ship Positions

MSC Sinfonia

Last reported at 2014-Jul-24 18:33 UTC. Time now 2014-Jul-24 19:24 UTC.
Position N 38°54' E 002°23'.

Length 251 m; draft 6.8 m.

Type: Passenger vessel. MMSI: 356715971.

Date/timePositionNaut miles runAvg speedWind from/ knotsBaromVisibWave heightAir tempDewpointWater temp
2014-Jul-24 18:33N 38°54' E 002°23'1312.8
2014-Jul-24 17:33N 38°54' E 002°06'1312.8
2014-Jul-24 16:33N 38°54' E 001°50'1312.7
2014-Jul-24 15:33N 38°54' E 001°33'5 0.2
2014-Jul-23 17:25N 38°54' E 001°27'0 0.0
2014-Jul-23 16:21N 38°54' E 001°27'4 4.7
2014-Jul-23 15:33N 38°54' E 001°32'1312.6
2014-Jul-23 14:32N 39°03' E 001°44'1312.8
2014-Jul-23 13:33N 39°14' E 001°51'1413.6
2014-Jul-23 12:31N 39°27' E 001°59'1111.8
2014-Jul-23 11:33N 39°37' E 002°05'1413.4
2014-Jul-23 10:32N 39°46' E 002°18'1111.7
2014-Jul-23 09:33N 39°55' E 002°28'1212.3
2014-Jul-23 08:33N 40°04' E 002°40'1212.4
2014-Jul-23 07:33N 40°12' E 002°51'1312.7
2014-Jul-23 06:33N 40°21' E 003°03'1312.9
2014-Jul-23 05:33N 40°31' E 003°14'1313.0
2014-Jul-23 04:32N 40°40' E 003°27'1612.8
2014-Jul-23 03:18N 40°51' E 003°42'1413.7
2014-Jul-23 02:18N 41°01' E 003°55'1415.6
2014-Jul-23 01:26N 41°10' E 004°07'1312.7
2014-Jul-23 00:25N 41°19' E 004°20'1515.0
2014-Jul-22 23:27N 41°30' E 004°33'1717.3
2014-Jul-22 22:27N 41°41' E 004°50'5516.9
2014-Jul-22 19:11N 42°21' E 005°42'1116.7
2014-Jul-22 18:33N 42°28' E 005°52'1716.7
2014-Jul-22 17:33N 42°40' E 006°08'1716.5
2014-Jul-22 16:33N 42°52' E 006°24'1817.7
2014-Jul-22 15:33N 43°05' E 006°40'1818.4
2014-Jul-22 14:33N 43°21' E 006°53'1312.4
2014-Jul-22 13:33N 43°32' E 007°01'0 0.0
2014-Jul-22 12:33N 43°32' E 007°01'0 0.0
2014-Jul-22 11:33N 43°32' E 007°01'0 0.0
2014-Jul-22 10:33N 43°32' E 007°01'0 0.0
2014-Jul-22 09:21N 43°32' E 007°01'0 0.0
2014-Jul-22 08:33N 43°32' E 007°01'0 0.0
2014-Jul-22 07:33N 43°32' E 007°01'0 0.0
2014-Jul-22 06:33N 43°32' E 007°01'0 0.0
2014-Jul-22 05:33N 43°32' E 007°01'4 3.9
2014-Jul-22 04:33N 43°28' E 007°03'10 9.9
2014-Jul-22 03:33N 43°30' E 007°17'10 9.8
2014-Jul-22 02:33N 43°32' E 007°30'55 8.8
2014-Jul-21 20:18N 43°59' E 008°36'0 9.6
2014-Jul-21 20:17N 43°59' E 008°36'810.4
2014-Jul-21 19:34N 44°05' E 008°42'1010.1
2014-Jul-21 18:34N 44°13' E 008°51'9 9.3
2014-Jul-21 17:33N 44°21' E 008°57'4 3.2
2014-Jul-21 16:18N 44°25' E 008°55'0 0.0
2014-Jul-21 15:30N 44°25' E 008°55'0 0.0
2014-Jul-21 14:33N 44°25' E 008°55'0 0.0
2014-Jul-21 13:21N 44°25' E 008°55'0 0.0
2014-Jul-21 11:33N 44°25' E 008°55'0 0.0
2014-Jul-21 10:09N 44°25' E 008°55'0 0.0
2014-Jul-21 09:33N 44°25' E 008°55'0 0.0
2014-Jul-21 07:30N 44°25' E 008°55'3 2.7
2014-Jul-21 06:33N 44°23' E 008°57'1616.2
2014-Jul-21 05:33N 44°08' E 009°07'1919.3
2014-Jul-21 04:33N 43°51' E 009°20'2019.7
2014-Jul-21 03:33N 43°34' E 009°33'1919.3
2014-Jul-21 02:34N 43°18' E 009°48'10519.3
2014-Jul-20 21:07N 41°55' E 011°15'1120.4
2014-Jul-20 20:33N 41°47' E 011°27'2120.3
2014-Jul-20 19:32N 41°33' E 011°47'1919.6
2014-Jul-20 18:33N 41°20' E 012°06'2219.4
2014-Jul-20 17:25N 41°05' E 012°28'1719.7
2014-Jul-20 16:32N 40°53' E 012°45'1919.3
2014-Jul-20 15:33N 40°46' E 013°07'1919.4
2014-Jul-20 14:33N 40°40' E 013°32'2019.7
2014-Jul-20 13:33N 40°34' E 013°57'1919.4
2014-Jul-20 12:33N 40°31' E 014°22'4 0.4
2014-Jul-20 03:22N 40°33' E 014°27'1519.1
2014-Jul-20 02:33N 40°31' E 014°07'1919.1
2014-Jul-20 01:33N 40°34' E 013°42'2019.5
2014-Jul-20 00:33N 40°36' E 013°16'9919.6
2014-Jul-19 19:30N 40°50' E 011°07'6612.7
2014-Jul-19 14:18N 40°58' E 009°40'27 2.5
2014-Jul-19 03:23N 41°22' E 009°23'1315.3
2014-Jul-19 02:32N 41°17' E 009°07'2115.6
2014-Jul-19 01:11N 41°15' E 008°39'1216.8
2014-Jul-19 00:29N 41°13' E 008°23'1616.9
2014-Jul-18 23:33N 41°08' E 008°04'1716.8
2014-Jul-18 22:33N 41°01' E 007°43'1716.7
2014-Jul-18 21:33N 40°54' E 007°23'1716.7
2014-Jul-18 20:33N 40°47' E 007°03'1716.7
2014-Jul-18 19:32N 40°40' E 006°43'1816.7
2014-Jul-18 18:29N 40°33' E 006°21'1616.8
2014-Jul-18 17:33N 40°27' E 006°03'2017.7
2014-Jul-18 16:24N 40°19' E 005°38'1516.6
2014-Jul-18 15:29N 40°12' E 005°20'52 4.3
2014-Jul-18 03:33N 39°49' E 004°20'9 9.2
2014-Jul-18 02:33N 39°41' E 004°14'1212.1
2014-Jul-18 01:33N 39°33' E 004°03'1514.2
2014-Jul-18 00:30N 39°23' E 003°48'1112.0
2014-Jul-17 23:33N 39°15' E 003°37'1313.1
2014-Jul-17 22:33N 39°07' E 003°24'1313.3
2014-Jul-17 21:33N 38°58' E 003°12'1212.4
2014-Jul-17 20:33N 38°54' E 002°57'1312.6
2014-Jul-17 19:33N 38°54' E 002°40'1312.5
2014-Jul-17 18:33N 38°54' E 002°24'1312.6
2014-Jul-17 17:33N 38°54' E 002°08'1312.6
2014-Jul-17 16:33N 38°54' E 001°52'1312.8
2014-Jul-17 15:33N 38°54' E 001°35'5 0.2
2014-Jul-16 15:33N 38°54' E 001°29'1313.5
2014-Jul-16 14:33N 39°01' E 001°43'1414.3
2014-Jul-16 13:33N 39°14' E 001°51'1414.1
2014-Jul-16 12:32N 39°27' E 001°59'1414.2
2014-Jul-16 11:33N 39°39' E 002°08'1414.4
2014-Jul-16 10:33N 39°49' E 002°22'1414.4
2014-Jul-16 09:33N 39°59' E 002°35'1413.8
2014-Jul-16 08:33N 40°09' E 002°47'1414.0
2014-Jul-16 07:33N 40°19' E 003°00'1414.1
2014-Jul-16 06:34N 40°29' E 003°13'1514.4
2014-Jul-16 05:33N 40°39' E 003°26'1615.3
2014-Jul-16 04:31N 40°50' E 003°41'1414.2
2014-Jul-16 03:32N 41°00' E 003°54'1513.9
2014-Jul-16 02:29N 41°11' E 004°08'1313.8
2014-Jul-16 01:33N 41°20' E 004°20'1413.5
2014-Jul-16 00:32N 41°29' E 004°33'1313.2
2014-Jul-15 23:32N 41°39' E 004°46'1413.6
2014-Jul-15 22:32N 41°49' E 004°58'1413.6
2014-Jul-15 21:31N 41°58' E 005°11'1313.3
2014-Jul-15 20:33N 42°07' E 005°24'1413.7
2014-Jul-15 19:33N 42°17' E 005°37'1616.2
2014-Jul-15 18:33N 42°29' E 005°52'1817.9
2014-Jul-15 17:34N 42°41' E 006°09'1818.2
2014-Jul-15 16:34N 42°54' E 006°27'1818.2
2014-Jul-15 15:33N 43°08' E 006°43'1818.1
2014-Jul-15 14:33N 43°23' E 006°57'9 2.3
2014-Jul-15 10:27N 43°32' E 007°01'0 0.0
2014-Jul-15 09:21N 43°32' E 007°01'0 0.0
2014-Jul-15 08:21N 43°32' E 007°01'0 0.0
2014-Jul-15 07:15N 43°32' E 007°01'0 0.0
2014-Jul-15 06:33N 43°32' E 007°01'0 0.0
2014-Jul-15 05:33N 43°32' E 007°01'4 4.4
2014-Jul-15 04:33N 43°28' E 007°04'10 9.6
2014-Jul-15 03:33N 43°30' E 007°17'38 9.4
2014-Jul-14 23:29N 43°36' E 008°09'9 9.2
2014-Jul-14 22:34N 43°42' E 008°19'10 9.7
2014-Jul-14 21:34N 43°49' E 008°27'10 9.8
2014-Jul-14 20:33N 43°57' E 008°35'10 9.6
2014-Jul-14 19:34N 44°05' E 008°42'  
Track history (hours):
 
Tides and Currents Weather Stations Pressure Air Temp Water Temp Dewpoint Dewpoint Depression Visibility Wind Speed Wind Dir Waves Ship Positions

MSC Sinfonia

Last reported at 2014-Jul-24 18:33 UTC. Time now 2014-Jul-24 19:24 UTC.
Position N 38°54' E 002°23'.

Length 251 m; draft 6.8 m.

Type: Passenger vessel. MMSI: 356715971.

Date/timePositionNaut miles runAvg speedWind from/ knotsBaromVisibWave heightAir tempDewpointWater temp
2014-Jul-24 18:33N 38°54' E 002°23'1312.8
2014-Jul-24 17:33N 38°54' E 002°06'1312.8
2014-Jul-24 16:33N 38°54' E 001°50'1312.7
2014-Jul-24 15:33N 38°54' E 001°33'5 0.2
2014-Jul-23 17:25N 38°54' E 001°27'0 0.0
2014-Jul-23 16:21N 38°54' E 001°27'4 4.7
2014-Jul-23 15:33N 38°54' E 001°32'1312.6
2014-Jul-23 14:32N 39°03' E 001°44'1312.8
2014-Jul-23 13:33N 39°14' E 001°51'1413.6
2014-Jul-23 12:31N 39°27' E 001°59'1111.8
2014-Jul-23 11:33N 39°37' E 002°05'1413.4
2014-Jul-23 10:32N 39°46' E 002°18'1111.7
2014-Jul-23 09:33N 39°55' E 002°28'1212.3
2014-Jul-23 08:33N 40°04' E 002°40'1212.4
2014-Jul-23 07:33N 40°12' E 002°51'1312.7
2014-Jul-23 06:33N 40°21' E 003°03'1312.9
2014-Jul-23 05:33N 40°31' E 003°14'1313.0
2014-Jul-23 04:32N 40°40' E 003°27'1612.8
2014-Jul-23 03:18N 40°51' E 003°42'1413.7
2014-Jul-23 02:18N 41°01' E 003°55'1415.6
2014-Jul-23 01:26N 41°10' E 004°07'1312.7
2014-Jul-23 00:25N 41°19' E 004°20'1515.0
2014-Jul-22 23:27N 41°30' E 004°33'1717.3
2014-Jul-22 22:27N 41°41' E 004°50'5516.9
2014-Jul-22 19:11N 42°21' E 005°42'1116.7
2014-Jul-22 18:33N 42°28' E 005°52'1716.7
2014-Jul-22 17:33N 42°40' E 006°08'1716.5
2014-Jul-22 16:33N 42°52' E 006°24'1817.7
2014-Jul-22 15:33N 43°05' E 006°40'1818.4
2014-Jul-22 14:33N 43°21' E 006°53'1312.4
2014-Jul-22 13:33N 43°32' E 007°01'0 0.0
2014-Jul-22 12:33N 43°32' E 007°01'0 0.0
2014-Jul-22 11:33N 43°32' E 007°01'0 0.0
2014-Jul-22 10:33N 43°32' E 007°01'0 0.0
2014-Jul-22 09:21N 43°32' E 007°01'0 0.0
2014-Jul-22 08:33N 43°32' E 007°01'0 0.0
2014-Jul-22 07:33N 43°32' E 007°01'0 0.0
2014-Jul-22 06:33N 43°32' E 007°01'0 0.0
2014-Jul-22 05:33N 43°32' E 007°01'4 3.9
2014-Jul-22 04:33N 43°28' E 007°03'10 9.9
2014-Jul-22 03:33N 43°30' E 007°17'10 9.8
2014-Jul-22 02:33N 43°32' E 007°30'55 8.8
2014-Jul-21 20:18N 43°59' E 008°36'0 9.6
2014-Jul-21 20:17N 43°59' E 008°36'810.4
2014-Jul-21 19:34N 44°05' E 008°42'1010.1
2014-Jul-21 18:34N 44°13' E 008°51'9 9.3
2014-Jul-21 17:33N 44°21' E 008°57'4 3.2
2014-Jul-21 16:18N 44°25' E 008°55'0 0.0
2014-Jul-21 15:30N 44°25' E 008°55'0 0.0
2014-Jul-21 14:33N 44°25' E 008°55'0 0.0
2014-Jul-21 13:21N 44°25' E 008°55'0 0.0
2014-Jul-21 11:33N 44°25' E 008°55'0 0.0
2014-Jul-21 10:09N 44°25' E 008°55'0 0.0
2014-Jul-21 09:33N 44°25' E 008°55'0 0.0
2014-Jul-21 07:30N 44°25' E 008°55'3 2.7
2014-Jul-21 06:33N 44°23' E 008°57'1616.2
2014-Jul-21 05:33N 44°08' E 009°07'1919.3
2014-Jul-21 04:33N 43°51' E 009°20'2019.7
2014-Jul-21 03:33N 43°34' E 009°33'1919.3
2014-Jul-21 02:34N 43°18' E 009°48'10519.3
2014-Jul-20 21:07N 41°55' E 011°15'1120.4
2014-Jul-20 20:33N 41°47' E 011°27'2120.3
2014-Jul-20 19:32N 41°33' E 011°47'1919.6
2014-Jul-20 18:33N 41°20' E 012°06'2219.4
2014-Jul-20 17:25N 41°05' E 012°28'1719.7
2014-Jul-20 16:32N 40°53' E 012°45'1919.3
2014-Jul-20 15:33N 40°46' E 013°07'1919.4
2014-Jul-20 14:33N 40°40' E 013°32'2019.7
2014-Jul-20 13:33N 40°34' E 013°57'1919.4
2014-Jul-20 12:33N 40°31' E 014°22'4 0.4
2014-Jul-20 03:22N 40°33' E 014°27'1519.1
2014-Jul-20 02:33N 40°31' E 014°07'1919.1
2014-Jul-20 01:33N 40°34' E 013°42'2019.5
2014-Jul-20 00:33N 40°36' E 013°16'9919.6
2014-Jul-19 19:30N 40°50' E 011°07'6612.7
2014-Jul-19 14:18N 40°58' E 009°40'27 2.5
2014-Jul-19 03:23N 41°22' E 009°23'1315.3
2014-Jul-19 02:32N 41°17' E 009°07'2115.6
2014-Jul-19 01:11N 41°15' E 008°39'1216.8
2014-Jul-19 00:29N 41°13' E 008°23'1616.9
2014-Jul-18 23:33N 41°08' E 008°04'1716.8
2014-Jul-18 22:33N 41°01' E 007°43'1716.7
2014-Jul-18 21:33N 40°54' E 007°23'1716.7
2014-Jul-18 20:33N 40°47' E 007°03'1716.7
2014-Jul-18 19:32N 40°40' E 006°43'1816.7
2014-Jul-18 18:29N 40°33' E 006°21'1616.8
2014-Jul-18 17:33N 40°27' E 006°03'2017.7
2014-Jul-18 16:24N 40°19' E 005°38'1516.6
2014-Jul-18 15:29N 40°12' E 005°20'52 4.3
2014-Jul-18 03:33N 39°49' E 004°20'9 9.2
2014-Jul-18 02:33N 39°41' E 004°14'1212.1
2014-Jul-18 01:33N 39°33' E 004°03'1514.2
2014-Jul-18 00:30N 39°23' E 003°48'1112.0
2014-Jul-17 23:33N 39°15' E 003°37'1313.1
2014-Jul-17 22:33N 39°07' E 003°24'1313.3
2014-Jul-17 21:33N 38°58' E 003°12'1212.4
2014-Jul-17 20:33N 38°54' E 002°57'1312.6
2014-Jul-17 19:33N 38°54' E 002°40'1312.5
2014-Jul-17 18:33N 38°54' E 002°24'1312.6
2014-Jul-17 17:33N 38°54' E 002°08'1312.6
2014-Jul-17 16:33N 38°54' E 001°52'1312.8
2014-Jul-17 15:33N 38°54' E 001°35'5 0.2
2014-Jul-16 15:33N 38°54' E 001°29'1313.5
2014-Jul-16 14:33N 39°01' E 001°43'1414.3
2014-Jul-16 13:33N 39°14' E 001°51'1414.1
2014-Jul-16 12:32N 39°27' E 001°59'1414.2
2014-Jul-16 11:33N 39°39' E 002°08'1414.4
2014-Jul-16 10:33N 39°49' E 002°22'1414.4
2014-Jul-16 09:33N 39°59' E 002°35'1413.8
2014-Jul-16 08:33N 40°09' E 002°47'1414.0
2014-Jul-16 07:33N 40°19' E 003°00'1414.1
2014-Jul-16 06:34N 40°29' E 003°13'1514.4
2014-Jul-16 05:33N 40°39' E 003°26'1615.3
2014-Jul-16 04:31N 40°50' E 003°41'1414.2
2014-Jul-16 03:32N 41°00' E 003°54'1513.9
2014-Jul-16 02:29N 41°11' E 004°08'1313.8
2014-Jul-16 01:33N 41°20' E 004°20'1413.5
2014-Jul-16 00:32N 41°29' E 004°33'1313.2
2014-Jul-15 23:32N 41°39' E 004°46'1413.6
2014-Jul-15 22:32N 41°49' E 004°58'1413.6
2014-Jul-15 21:31N 41°58' E 005°11'1313.3
2014-Jul-15 20:33N 42°07' E 005°24'1413.7
2014-Jul-15 19:33N 42°17' E 005°37'1616.2
2014-Jul-15 18:33N 42°29' E 005°52'1817.9
2014-Jul-15 17:34N 42°41' E 006°09'1818.2
2014-Jul-15 16:34N 42°54' E 006°27'1818.2
2014-Jul-15 15:33N 43°08' E 006°43'1818.1
2014-Jul-15 14:33N 43°23' E 006°57'9 2.3
2014-Jul-15 10:27N 43°32' E 007°01'0 0.0
2014-Jul-15 09:21N 43°32' E 007°01'0 0.0
2014-Jul-15 08:21N 43°32' E 007°01'0 0.0
2014-Jul-15 07:15N 43°32' E 007°01'0 0.0
2014-Jul-15 06:33N 43°32' E 007°01'0 0.0
2014-Jul-15 05:33N 43°32' E 007°01'4 4.4
2014-Jul-15 04:33N 43°28' E 007°04'10 9.6
2014-Jul-15 03:33N 43°30' E 007°17'38 9.4
2014-Jul-14 23:29N 43°36' E 008°09'9 9.2
2014-Jul-14 22:34N 43°42' E 008°19'10 9.7
2014-Jul-14 21:34N 43°49' E 008°27'10 9.8
2014-Jul-14 20:33N 43°57' E 008°35'10 9.6
2014-Jul-14 19:34N 44°05' E 008°42'  

Dump ship's entire track history